Perseverance — WDJ3835 — position and weather

sailwx.info

Track history (hours):
 
Tides and Currents Weather Stations Pressure Air Temp Water Temp Dewpoint Dewpoint Depression Visibility Wind Speed Wind Dir Waves Ship Positions

Perseverance

Owner: Kuony, John C, Pleasanton, CA. More information available from US FCC via Universal Licensing System and Coast Guard Vessel Documentation Center.

Last reported at 2018-Jul-14 16:33 UTC. Time now 2018-Jul-18 14:30 UTC.
Position N 42°47' W 070°19'.

Length 15 m.

Type: Pleasure craft. MMSI: 367666650.

Date/timePositionNaut miles runAvg speedWind from/ knotsBaromVisibWave heightAir tempDewpointWater temp
2018-Jul-14 16:33N 42°47' W 070°19'0 7.5
2018-Jul-14 16:30N 42°47' W 070°19'4 7.9
2018-Jul-14 16:00N 42°43' W 070°20'4 8.2
2018-Jul-14 15:29N 42°38' W 070°20'4 8.2
2018-Jul-14 15:01N 42°35' W 070°21'4 7.9
2018-Jul-14 14:30N 42°31' W 070°22'8 7.5
2018-Jul-14 13:27N 42°23' W 070°23'4 7.5
2018-Jul-14 12:52N 42°18' W 070°24'3 7.5
2018-Jul-14 12:30N 42°16' W 070°24'4 7.7
2018-Jul-14 11:57N 42°11' W 070°25'3 8.0
2018-Jul-14 11:31N 42°08' W 070°26'57 2.1
2018-Jul-13 08:22N 41°29' W 071°21'  
Track history (hours):
 
Tides and Currents Weather Stations Pressure Air Temp Water Temp Dewpoint Dewpoint Depression Visibility Wind Speed Wind Dir Waves Ship Positions

Perseverance

Owner: Kuony, John C, Pleasanton, CA. More information available from US FCC via Universal Licensing System and Coast Guard Vessel Documentation Center.

Last reported at 2018-Jul-14 16:33 UTC. Time now 2018-Jul-18 14:30 UTC.
Position N 42°47' W 070°19'.

Length 15 m.

Type: Pleasure craft. MMSI: 367666650.

Date/timePositionNaut miles runAvg speedWind from/ knotsBaromVisibWave heightAir tempDewpointWater temp
2018-Jul-14 16:33N 42°47' W 070°19'0 7.5
2018-Jul-14 16:30N 42°47' W 070°19'4 7.9
2018-Jul-14 16:00N 42°43' W 070°20'4 8.2
2018-Jul-14 15:29N 42°38' W 070°20'4 8.2
2018-Jul-14 15:01N 42°35' W 070°21'4 7.9
2018-Jul-14 14:30N 42°31' W 070°22'8 7.5
2018-Jul-14 13:27N 42°23' W 070°23'4 7.5
2018-Jul-14 12:52N 42°18' W 070°24'3 7.5
2018-Jul-14 12:30N 42°16' W 070°24'4 7.7
2018-Jul-14 11:57N 42°11' W 070°25'3 8.0
2018-Jul-14 11:31N 42°08' W 070°26'57 2.1
2018-Jul-13 08:22N 41°29' W 071°21'  

Dump ship's entire track history